sensor_id;sensor_type;location;lat;lon;timestamp;pressure;altitude;pressure_sealevel;temperature;humidity
21545;BME280;10933;50.754;11.508;2023-05-23T00:02:23;99349.88;;;14.70;100.00
21545;BME280;10933;50.754;11.508;2023-05-23T00:04:49;99352.06;;;14.68;100.00
21545;BME280;10933;50.754;11.508;2023-05-23T00:07:17;99341.78;;;14.65;100.00
21545;BME280;10933;50.754;11.508;2023-05-23T00:09:43;99355.88;;;14.67;100.00
21545;BME280;10933;50.754;11.508;2023-05-23T00:12:09;99348.03;;;14.66;100.00
21545;BME280;10933;50.754;11.508;2023-05-23T00:14:37;99353.75;;;14.64;100.00
21545;BME280;10933;50.754;11.508;2023-05-23T00:17:05;99353.75;;;14.64;100.00
21545;BME280;10933;50.754;11.508;2023-05-23T00:19:33;99354.56;;;14.65;100.00
21545;BME280;10933;50.754;11.508;2023-05-23T00:22:01;99356.69;;;14.68;100.00
21545;BME280;10933;50.754;11.508;2023-05-23T00:24:28;99344.22;;;14.67;100.00
21545;BME280;10933;50.754;11.508;2023-05-23T00:26:54;99354.25;;;14.66;100.00
21545;BME280;10933;50.754;11.508;2023-05-23T00:29:20;99358.66;;;14.62;100.00
21545;BME280;10933;50.754;11.508;2023-05-23T00:31:47;99354.84;;;14.63;100.00
21545;BME280;10933;50.754;11.508;2023-05-23T00:34:14;99346.63;;;14.68;100.00
21545;BME280;10933;50.754;11.508;2023-05-23T00:36:40;99347.38;;;14.79;100.00
21545;BME280;10933;50.754;11.508;2023-05-23T00:39:08;99335.72;;;14.79;100.00
21545;BME280;10933;50.754;11.508;2023-05-23T00:41:34;99341.13;;;14.79;100.00
21545;BME280;10933;50.754;11.508;2023-05-23T00:44:03;99339.25;;;15.08;100.00
21545;BME280;10933;50.754;11.508;2023-05-23T00:46:31;99339.34;;;14.98;100.00
21545;BME280;10933;50.754;11.508;2023-05-23T00:48:57;99346.72;;;14.92;100.00
21545;BME280;10933;50.754;11.508;2023-05-23T00:51:24;99334.56;;;14.85;100.00
21545;BME280;10933;50.754;11.508;2023-05-23T00:53:51;99338.63;;;14.87;100.00
21545;BME280;10933;50.754;11.508;2023-05-23T00:56:18;99342.16;;;14.88;100.00
21545;BME280;10933;50.754;11.508;2023-05-23T00:58:45;99338.38;;;14.84;100.00
21545;BME280;10933;50.754;11.508;2023-05-23T01:01:12;99352.03;;;15.08;100.00
21545;BME280;10933;50.754;11.508;2023-05-23T01:03:40;99348.34;;;14.93;100.00
21545;BME280;10933;50.754;11.508;2023-05-23T01:06:06;99341.53;;;14.96;100.00
21545;BME280;10933;50.754;11.508;2023-05-23T01:08:32;99342.25;;;15.07;100.00
21545;BME280;10933;50.754;11.508;2023-05-23T01:11:03;99347.91;;;15.10;100.00
21545;BME280;10933;50.754;11.508;2023-05-23T01:14:04;99348.84;;;15.00;100.00
21545;BME280;10933;50.754;11.508;2023-05-23T01:16:44;99351.28;;;14.97;100.00
21545;BME280;10933;50.754;11.508;2023-05-23T01:19:47;99352.16;;;14.92;100.00
21545;BME280;10933;50.754;11.508;2023-05-23T01:22:48;99351.81;;;14.99;100.00
21545;BME280;10933;50.754;11.508;2023-05-23T01:28:17;99352.22;;;15.16;100.00
21545;BME280;10933;50.754;11.508;2023-05-23T01:30:45;99352.59;;;15.34;100.00
21545;BME280;10933;50.754;11.508;2023-05-23T01:33:15;99350.84;;;15.19;100.00
21545;BME280;10933;50.754;11.508;2023-05-23T01:35:42;99354.50;;;15.04;100.00
21545;BME280;10933;50.754;11.508;2023-05-23T01:38:09;99364.56;;;15.04;100.00
21545;BME280;10933;50.754;11.508;2023-05-23T01:40:36;99365.16;;;15.00;100.00
21545;BME280;10933;50.754;11.508;2023-05-23T01:43:03;99363.69;;;15.13;100.00
21545;BME280;10933;50.754;11.508;2023-05-23T01:45:29;99361.78;;;15.14;100.00
21545;BME280;10933;50.754;11.508;2023-05-23T01:47:56;99359.06;;;15.14;100.00
21545;BME280;10933;50.754;11.508;2023-05-23T01:50:24;99359.84;;;15.14;100.00
21545;BME280;10933;50.754;11.508;2023-05-23T01:52:51;99360.31;;;15.21;100.00
21545;BME280;10933;50.754;11.508;2023-05-23T01:55:20;99351.66;;;15.19;100.00
21545;BME280;10933;50.754;11.508;2023-05-23T01:57:54;99363.91;;;15.17;100.00
21545;BME280;10933;50.754;11.508;2023-05-23T02:00:22;99359.38;;;15.07;100.00
21545;BME280;10933;50.754;11.508;2023-05-23T02:02:48;99360.53;;;15.01;100.00
21545;BME280;10933;50.754;11.508;2023-05-23T02:05:14;99371.38;;;15.01;100.00
21545;BME280;10933;50.754;11.508;2023-05-23T02:07:40;99363.78;;;14.98;100.00
21545;BME280;10933;50.754;11.508;2023-05-23T02:10:08;99359.38;;;15.07;100.00
21545;BME280;10933;50.754;11.508;2023-05-23T02:12:34;99372.19;;;15.01;100.00
21545;BME280;10933;50.754;11.508;2023-05-23T02:15:02;99371.41;;;14.96;100.00
21545;BME280;10933;50.754;11.508;2023-05-23T02:17:28;99366.03;;;14.91;100.00
21545;BME280;10933;50.754;11.508;2023-05-23T02:19:55;99368.22;;;14.89;100.00
21545;BME280;10933;50.754;11.508;2023-05-23T02:22:25;99376.91;;;14.86;100.00
21545;BME280;10933;50.754;11.508;2023-05-23T02:24:51;99374.75;;;14.88;100.00
21545;BME280;10933;50.754;11.508;2023-05-23T02:27:18;99363.59;;;14.89;100.00
21545;BME280;10933;50.754;11.508;2023-05-23T02:29:44;99355.16;;;14.91;100.00
21545;BME280;10933;50.754;11.508;2023-05-23T02:32:10;99366.59;;;14.88;100.00
21545;BME280;10933;50.754;11.508;2023-05-23T02:34:37;99364.97;;;14.87;100.00
21545;BME280;10933;50.754;11.508;2023-05-23T02:37:03;99362.78;;;14.89;100.00
21545;BME280;10933;50.754;11.508;2023-05-23T02:39:29;99373.06;;;14.92;100.00
21545;BME280;10933;50.754;11.508;2023-05-23T02:41:56;99376.59;;;14.92;100.00
21545;BME280;10933;50.754;11.508;2023-05-23T02:44:22;99376.38;;;14.89;100.00
21545;BME280;10933;50.754;11.508;2023-05-23T02:46:48;99372.03;;;14.88;100.00
21545;BME280;10933;50.754;11.508;2023-05-23T02:49:14;99376.38;;;14.89;100.00
21545;BME280;10933;50.754;11.508;2023-05-23T02:51:40;99373.38;;;14.90;100.00
21545;BME280;10933;50.754;11.508;2023-05-23T02:54:06;99373.66;;;14.89;100.00
21545;BME280;10933;50.754;11.508;2023-05-23T02:56:32;99376.09;;;14.90;100.00
21545;BME280;10933;50.754;11.508;2023-05-23T02:58:58;99376.38;;;14.89;100.00
21545;BME280;10933;50.754;11.508;2023-05-23T03:01:25;99374.47;;;14.89;100.00
21545;BME280;10933;50.754;11.508;2023-05-23T03:03:51;99377.66;;;14.96;100.00
21545;BME280;10933;50.754;11.508;2023-05-23T03:06:17;99375.75;;;14.97;100.00
21545;BME280;10933;50.754;11.508;2023-05-23T03:08:44;99370.56;;;15.00;100.00
21545;BME280;10933;50.754;11.508;2023-05-23T03:11:10;99376.25;;;15.04;100.00
21545;BME280;10933;50.754;11.508;2023-05-23T03:13:36;99375.34;;;15.14;100.00
21545;BME280;10933;50.754;11.508;2023-05-23T03:16:02;99378.34;;;15.12;100.00
21545;BME280;10933;50.754;11.508;2023-05-23T03:18:28;99376.97;;;15.15;100.00
21545;BME280;10933;50.754;11.508;2023-05-23T03:20:54;99378.25;;;15.22;100.00
21545;BME280;10933;50.754;11.508;2023-05-23T03:23:20;99379.03;;;15.28;100.00
21545;BME280;10933;50.754;11.508;2023-05-23T03:25:47;99371.09;;;15.31;100.00
21545;BME280;10933;50.754;11.508;2023-05-23T03:28:13;99374.84;;;15.36;100.00
21545;BME280;10933;50.754;11.508;2023-05-23T03:30:40;99372.94;;;15.36;100.00
21545;BME280;10933;50.754;11.508;2023-05-23T03:33:06;99370.72;;;15.43;100.00
21545;BME280;10933;50.754;11.508;2023-05-23T03:35:32;99364.19;;;15.44;100.00
21545;BME280;10933;50.754;11.508;2023-05-23T03:37:58;99375.53;;;15.51;100.00
21545;BME280;10933;50.754;11.508;2023-05-23T03:40:24;99380.41;;;15.54;100.00
21545;BME280;10933;50.754;11.508;2023-05-23T03:43:04;99384.44;;;15.57;100.00
21545;BME280;10933;50.754;11.508;2023-05-23T03:45:31;99388.22;;;15.61;100.00
21545;BME280;10933;50.754;11.508;2023-05-23T03:47:58;99382.25;;;15.59;100.00
21545;BME280;10933;50.754;11.508;2023-05-23T03:50:24;99387.41;;;15.60;100.00
21545;BME280;10933;50.754;11.508;2023-05-23T03:52:51;99388.72;;;15.68;100.00
21545;BME280;10933;50.754;11.508;2023-05-23T03:55:18;99386.00;;;15.68;100.00
21545;BME280;10933;50.754;11.508;2023-05-23T03:57:47;99385.94;;;15.73;100.00
21545;BME280;10933;50.754;11.508;2023-05-23T04:00:14;99384.09;;;15.69;100.00
21545;BME280;10933;50.754;11.508;2023-05-23T04:02:40;99389.75;;;15.72;100.00
21545;BME280;10933;50.754;11.508;2023-05-23T04:05:07;99388.41;;;15.70;100.00
21545;BME280;10933;50.754;11.508;2023-05-23T04:07:33;99376.09;;;15.77;100.00
21545;BME280;10933;50.754;11.508;2023-05-23T04:10:00;99377.66;;;15.83;100.00
21545;BME280;10933;50.754;11.508;2023-05-23T04:12:26;99381.78;;;15.81;100.00
21545;BME280;10933;50.754;11.508;2023-05-23T04:14:52;99380.84;;;15.91;100.00
21545;BME280;10933;50.754;11.508;2023-05-23T04:17:19;99377.84;;;15.92;100.00
21545;BME280;10933;50.754;11.508;2023-05-23T04:19:46;99378.28;;;15.99;100.00
21545;BME280;10933;50.754;11.508;2023-05-23T04:22:12;99371.16;;;16.27;100.00
21545;BME280;10933;50.754;11.508;2023-05-23T04:24:38;99385.69;;;16.17;100.00
21545;BME280;10933;50.754;11.508;2023-05-23T04:27:04;99389.59;;;16.49;100.00
21545;BME280;10933;50.754;11.508;2023-05-23T04:29:30;99391.59;;;16.43;100.00
21545;BME280;10933;50.754;11.508;2023-05-23T04:31:57;99392.56;;;16.53;100.00
21545;BME280;10933;50.754;11.508;2023-05-23T04:34:23;99389.56;;;16.73;100.00
21545;BME280;10933;50.754;11.508;2023-05-23T04:36:49;99386.28;;;17.09;100.00
21545;BME280;10933;50.754;11.508;2023-05-23T04:39:16;99376.75;;;16.92;100.00
21545;BME280;10933;50.754;11.508;2023-05-23T04:41:42;99386.56;;;16.74;100.00
21545;BME280;10933;50.754;11.508;2023-05-23T04:44:10;99388.31;;;16.84;100.00
21545;BME280;10933;50.754;11.508;2023-05-23T04:46:36;99382.41;;;16.39;100.00
21545;BME280;10933;50.754;11.508;2023-05-23T04:49:07;99388.97;;;16.76;100.00
21545;BME280;10933;50.754;11.508;2023-05-23T04:51:33;99384.47;;;17.04;100.00
21545;BME280;10933;50.754;11.508;2023-05-23T04:54:00;99393.88;;;17.44;100.00
21545;BME280;10933;50.754;11.508;2023-05-23T04:56:26;99390.03;;;18.05;100.00
21545;BME280;10933;50.754;11.508;2023-05-23T04:58:53;99383.19;;;17.61;100.00
21545;BME280;10933;50.754;11.508;2023-05-23T05:01:19;99386.50;;;17.12;100.00
21545;BME280;10933;50.754;11.508;2023-05-23T05:03:45;99396.28;;;16.81;100.00
21545;BME280;10933;50.754;11.508;2023-05-23T05:06:13;99405.09;;;16.72;100.00
21545;BME280;10933;50.754;11.508;2023-05-23T05:08:39;99405.72;;;16.45;100.00
21545;BME280;10933;50.754;11.508;2023-05-23T05:11:05;99408.97;;;16.47;100.00
21545;BME280;10933;50.754;11.508;2023-05-23T05:13:31;99410.59;;;16.48;100.00
21545;BME280;10933;50.754;11.508;2023-05-23T05:15:58;99408.44;;;16.45;100.00
21545;BME280;10933;50.754;11.508;2023-05-23T05:18:25;99416.16;;;16.38;100.00
21545;BME280;10933;50.754;11.508;2023-05-23T05:20:52;99408.16;;;16.28;100.00
21545;BME280;10933;50.754;11.508;2023-05-23T05:23:18;99411.16;;;16.27;100.00
21545;BME280;10933;50.754;11.508;2023-05-23T05:25:44;99417.81;;;16.39;100.00
21545;BME280;10933;50.754;11.508;2023-05-23T05:28:11;99417.22;;;16.42;100.00
21545;BME280;10933;50.754;11.508;2023-05-23T05:30:37;99418.88;;;16.38;100.00
21545;BME280;10933;50.754;11.508;2023-05-23T05:33:06;99419.34;;;16.45;100.00
21545;BME280;10933;50.754;11.508;2023-05-23T05:35:35;99421.94;;;16.56;100.00
21545;BME280;10933;50.754;11.508;2023-05-23T05:38:03;99422.53;;;16.53;100.00
21545;BME280;10933;50.754;11.508;2023-05-23T05:40:30;99421.56;;;16.62;100.00
21545;BME280;10933;50.754;11.508;2023-05-23T05:42:57;99418.25;;;16.46;100.00
21545;BME280;10933;50.754;11.508;2023-05-23T05:45:23;99436.19;;;16.47;100.00
21545;BME280;10933;50.754;11.508;2023-05-23T05:47:49;99423.75;;;16.41;100.00
21545;BME280;10933;50.754;11.508;2023-05-23T05:50:16;99425.69;;;16.41;100.00
21545;BME280;10933;50.754;11.508;2023-05-23T05:52:44;99432.06;;;16.31;100.00
21545;BME280;10933;50.754;11.508;2023-05-23T05:55:11;99440.81;;;16.28;100.00
21545;BME280;10933;50.754;11.508;2023-05-23T05:57:40;99431.59;;;16.24;100.00
21545;BME280;10933;50.754;11.508;2023-05-23T06:00:08;99436.22;;;16.24;100.00
21545;BME280;10933;50.754;11.508;2023-05-23T06:02:41;99435.19;;;16.19;100.00
21545;BME280;10933;50.754;11.508;2023-05-23T06:05:09;99442.53;;;16.19;100.00
21545;BME280;10933;50.754;11.508;2023-05-23T06:07:40;99434.19;;;16.10;100.00
21545;BME280;10933;50.754;11.508;2023-05-23T06:10:07;99443.66;;;16.18;100.00
21545;BME280;10933;50.754;11.508;2023-05-23T06:12:34;99453.13;;;16.21;100.00
21545;BME280;10933;50.754;11.508;2023-05-23T06:15:04;99449.44;;;16.11;100.00
21545;BME280;10933;50.754;11.508;2023-05-23T06:17:31;99453.94;;;16.21;100.00
21545;BME280;10933;50.754;11.508;2023-05-23T06:19:57;99448.56;;;16.16;100.00
21545;BME280;10933;50.754;11.508;2023-05-23T06:22:23;99449.72;;;16.10;100.00
21545;BME280;10933;50.754;11.508;2023-05-23T06:24:49;99453.63;;;16.04;100.00
21545;BME280;10933;50.754;11.508;2023-05-23T06:27:15;99452.91;;;15.93;100.00
21545;BME280;10933;50.754;11.508;2023-05-23T06:29:42;99462.56;;;15.80;100.00
21545;BME280;10933;50.754;11.508;2023-05-23T06:32:08;99467.47;;;15.78;100.00
21545;BME280;10933;50.754;11.508;2023-05-23T06:34:34;99468.53;;;15.82;100.00
21545;BME280;10933;50.754;11.508;2023-05-23T06:37:00;99468.28;;;15.79;100.00
21545;BME280;10933;50.754;11.508;2023-05-23T06:39:26;99464.81;;;15.97;100.00
21545;BME280;10933;50.754;11.508;2023-05-23T06:41:53;99472.47;;;16.19;100.00
21545;BME280;10933;50.754;11.508;2023-05-23T06:44:19;99465.16;;;16.38;100.00
21545;BME280;10933;50.754;11.508;2023-05-23T06:46:46;99472.25;;;16.39;100.00
21545;BME280;10933;50.754;11.508;2023-05-23T06:49:13;99469.00;;;16.37;100.00
21545;BME280;10933;50.754;11.508;2023-05-23T06:51:40;99470.91;;;16.37;100.00
21545;BME280;10933;50.754;11.508;2023-05-23T06:54:06;99480.47;;;16.34;100.00
21545;BME280;10933;50.754;11.508;2023-05-23T06:56:32;99475.50;;;16.41;100.00
21545;BME280;10933;50.754;11.508;2023-05-23T06:58:59;99477.56;;;16.49;100.00
21545;BME280;10933;50.754;11.508;2023-05-23T07:01:26;99474.03;;;16.49;100.00
21545;BME280;10933;50.754;11.508;2023-05-23T07:03:52;99471.00;;;16.51;100.00
21545;BME280;10933;50.754;11.508;2023-05-23T07:06:18;99482.81;;;16.65;100.00
21545;BME280;10933;50.754;11.508;2023-05-23T07:08:44;99476.22;;;16.71;100.00
21545;BME280;10933;50.754;11.508;2023-05-23T07:11:11;99476.94;;;16.76;100.00
21545;BME280;10933;50.754;11.508;2023-05-23T07:13:38;99487.50;;;16.83;100.00
21545;BME280;10933;50.754;11.508;2023-05-23T07:16:04;99480.13;;;16.84;100.00
21545;BME280;10933;50.754;11.508;2023-05-23T07:18:31;99485.28;;;16.85;100.00
21545;BME280;10933;50.754;11.508;2023-05-23T07:20:57;99494.44;;;16.94;100.00
21545;BME280;10933;50.754;11.508;2023-05-23T07:23:24;99494.94;;;17.15;100.00
21545;BME280;10933;50.754;11.508;2023-05-23T07:25:50;99493.53;;;16.80;100.00
21545;BME280;10933;50.754;11.508;2023-05-23T07:28:16;99497.00;;;16.86;100.00
21545;BME280;10933;50.754;11.508;2023-05-23T07:30:42;99497.00;;;16.86;100.00
21545;BME280;10933;50.754;11.508;2023-05-23T07:33:09;99502.91;;;16.93;100.00
21545;BME280;10933;50.754;11.508;2023-05-23T07:35:35;99513.47;;;16.75;100.00
21545;BME280;10933;50.754;11.508;2023-05-23T07:38:01;99506.28;;;16.61;100.00
21545;BME280;10933;50.754;11.508;2023-05-23T07:40:27;99515.47;;;16.70;100.00
21545;BME280;10933;50.754;11.508;2023-05-23T07:42:53;99514.88;;;16.73;100.00
21545;BME280;10933;50.754;11.508;2023-05-23T07:45:20;99513.59;;;16.41;100.00
21545;BME280;10933;50.754;11.508;2023-05-23T07:47:47;99509.47;;;16.20;100.00
21545;BME280;10933;50.754;11.508;2023-05-23T07:50:14;99505.25;;;16.33;100.00
21545;BME280;10933;50.754;11.508;2023-05-23T07:52:40;99507.25;;;16.27;100.00
21545;BME280;10933;50.754;11.508;2023-05-23T07:55:06;99504.34;;;16.18;100.00
21545;BME280;10933;50.754;11.508;2023-05-23T07:57:33;99507.34;;;16.17;100.00
21545;BME280;10933;50.754;11.508;2023-05-23T07:59:59;99506.16;;;16.23;100.00
21545;BME280;10933;50.754;11.508;2023-05-23T08:02:25;99511.63;;;16.23;100.00
21545;BME280;10933;50.754;11.508;2023-05-23T08:04:51;99510.16;;;16.07;100.00
21545;BME280;10933;50.754;11.508;2023-05-23T08:07:18;99515.03;;;16.10;100.00
21545;BME280;10933;50.754;11.508;2023-05-23T08:09:45;99515.97;;;16.24;100.00
21545;BME280;10933;50.754;11.508;2023-05-23T08:12:11;99513.34;;;16.62;100.00
21545;BME280;10933;50.754;11.508;2023-05-23T08:14:37;99523.44;;;16.85;100.00
21545;BME280;10933;50.754;11.508;2023-05-23T08:17:03;99514.81;;;16.97;100.00
21545;BME280;10933;50.754;11.508;2023-05-23T08:19:29;99532.34;;;17.47;100.00
21545;BME280;10933;50.754;11.508;2023-05-23T08:21:56;99535.22;;;17.37;100.00
21545;BME280;10933;50.754;11.508;2023-05-23T08:24:22;99536.34;;;16.51;100.00
21545;BME280;10933;50.754;11.508;2023-05-23T08:26:49;99541.16;;;16.59;100.00
21545;BME280;10933;50.754;11.508;2023-05-23T08:29:15;99545.78;;;16.34;100.00
21545;BME280;10933;50.754;11.508;2023-05-23T08:31:41;99546.16;;;16.28;100.00
21545;BME280;10933;50.754;11.508;2023-05-23T08:34:08;99540.81;;;16.17;100.00
21545;BME280;10933;50.754;11.508;2023-05-23T08:36:34;99545.97;;;16.19;100.00
21545;BME280;10933;50.754;11.508;2023-05-23T08:39:01;99543.91;;;16.06;100.00
21545;BME280;10933;50.754;11.508;2023-05-23T08:41:29;99547.63;;;15.86;100.00
21545;BME280;10933;50.754;11.508;2023-05-23T08:43:56;99534.53;;;15.93;100.00
21545;BME280;10933;50.754;11.508;2023-05-23T08:46:26;99540.81;;;15.88;100.00
21545;BME280;10933;50.754;11.508;2023-05-23T08:48:53;99540.03;;;15.88;100.00
21545;BME280;10933;50.754;11.508;2023-05-23T08:51:25;99543.47;;;16.23;100.00
21545;BME280;10933;50.754;11.508;2023-05-23T08:53:51;99545.91;;;16.96;100.00
21545;BME280;10933;50.754;11.508;2023-05-23T08:56:19;99550.66;;;17.28;100.00
21545;BME280;10933;50.754;11.508;2023-05-23T08:58:45;99559.00;;;17.50;100.00
21545;BME280;10933;50.754;11.508;2023-05-23T09:01:13;99563.94;;;18.18;100.00
21545;BME280;10933;50.754;11.508;2023-05-23T09:03:40;99566.31;;;18.06;100.00
21545;BME280;10933;50.754;11.508;2023-05-23T09:06:09;99569.84;;;17.93;100.00
21545;BME280;10933;50.754;11.508;2023-05-23T09:08:36;99572.94;;;17.68;100.00
21545;BME280;10933;50.754;11.508;2023-05-23T09:11:03;99572.94;;;17.68;100.00
21545;BME280;10933;50.754;11.508;2023-05-23T09:13:31;99581.06;;;17.35;100.00
21545;BME280;10933;50.754;11.508;2023-05-23T09:16:02;99588.78;;;17.09;100.00
21545;BME280;10933;50.754;11.508;2023-05-23T09:18:39;99591.22;;;17.11;100.00
21545;BME280;10933;50.754;11.508;2023-05-23T09:21:08;99589.47;;;17.20;100.00
21545;BME280;10933;50.754;11.508;2023-05-23T09:23:36;99586.03;;;16.90;100.00
21545;BME280;10933;50.754;11.508;2023-05-23T09:26:04;99584.00;;;17.20;100.00
21545;BME280;10933;50.754;11.508;2023-05-23T09:28:34;99587.13;;;17.32;100.00
21545;BME280;10933;50.754;11.508;2023-05-23T09:31:02;99592.09;;;17.06;100.00
21545;BME280;10933;50.754;11.508;2023-05-23T09:33:35;99589.31;;;17.30;100.00
21545;BME280;10933;50.754;11.508;2023-05-23T09:36:04;99587.84;;;17.19;100.00
21545;BME280;10933;50.754;11.508;2023-05-23T09:38:30;99590.13;;;17.49;100.00
21545;BME280;10933;50.754;11.508;2023-05-23T09:40:58;99587.84;;;17.56;100.00
21545;BME280;10933;50.754;11.508;2023-05-23T09:43:24;99594.34;;;17.79;100.00
21545;BME280;10933;50.754;11.508;2023-05-23T09:45:52;99590.56;;;17.56;100.00
21545;BME280;10933;50.754;11.508;2023-05-23T09:48:19;99604.19;;;17.19;100.00
21545;BME280;10933;50.754;11.508;2023-05-23T09:50:45;99594.00;;;17.05;100.00
21545;BME280;10933;50.754;11.508;2023-05-23T09:53:16;99584.53;;;16.79;100.00
21545;BME280;10933;50.754;11.508;2023-05-23T09:55:42;99581.31;;;16.77;100.00
21545;BME280;10933;50.754;11.508;2023-05-23T09:58:08;99586.38;;;16.84;100.00
21545;BME280;10933;50.754;11.508;2023-05-23T10:00:35;99579.47;;;16.43;100.00
21545;BME280;10933;50.754;11.508;2023-05-23T10:03:11;99580.19;;;16.25;100.00
21545;BME280;10933;50.754;11.508;2023-05-23T10:05:48;99582.97;;;16.20;100.00
21545;BME280;10933;50.754;11.508;2023-05-23T10:13:57;99575.63;;;15.92;100.00
21545;BME280;10933;50.754;11.508;2023-05-23T10:16:46;99574.16;;;15.99;100.00
21545;BME280;10933;50.754;11.508;2023-05-23T10:22:07;99570.63;;;15.99;100.00
21545;BME280;10933;50.754;11.508;2023-05-23T10:24:36;99577.19;;;15.98;100.00
21545;BME280;10933;50.754;11.508;2023-05-23T10:27:02;99565.69;;;16.06;100.00
21545;BME280;10933;50.754;11.508;2023-05-23T10:29:29;99556.00;;;15.95;100.00
21545;BME280;10933;50.754;11.508;2023-05-23T10:31:57;99564.34;;;16.03;100.00
21545;BME280;10933;50.754;11.508;2023-05-23T10:37:44;99569.38;;;15.91;100.00
21545;BME280;10933;50.754;11.508;2023-05-23T10:40:33;99575.38;;;15.88;100.00
21545;BME280;10933;50.754;11.508;2023-05-23T10:45:49;99579.81;;;15.74;100.00
21545;BME280;10933;50.754;11.508;2023-05-23T10:48:35;99577.25;;;15.93;100.00
21545;BME280;10933;50.754;11.508;2023-05-23T10:51:07;99575.63;;;15.92;100.00
21545;BME280;10933;50.754;11.508;2023-05-23T10:53:41;99573.34;;;15.99;100.00
21545;BME280;10933;50.754;11.508;2023-05-23T10:56:09;99578.19;;;16.07;100.00
21545;BME280;10933;50.754;11.508;2023-05-23T10:58:39;99578.34;;;16.21;100.00
21545;BME280;10933;50.754;11.508;2023-05-23T11:01:08;99571.47;;;16.28;100.00
21545;BME280;10933;50.754;11.508;2023-05-23T11:03:49;99576.94;;;16.23;100.00
21545;BME280;10933;50.754;11.508;2023-05-23T11:06:39;99573.44;;;16.46;100.00
21545;BME280;10933;50.754;11.508;2023-05-23T11:09:15;99577.94;;;16.32;100.00
21545;BME280;10933;50.754;11.508;2023-05-23T11:14:17;99574.31;;;16.13;100.00
21545;BME280;10933;50.754;11.508;2023-05-23T11:16:44;99577.38;;;16.06;100.00
21545;BME280;10933;50.754;11.508;2023-05-23T11:19:22;99579.16;;;15.87;100.00
21545;BME280;10933;50.754;11.508;2023-05-23T11:22:01;99577.25;;;15.93;100.00
21545;BME280;10933;50.754;11.508;2023-05-23T11:24:51;99571.94;;;15.77;100.00
21545;BME280;10933;50.754;11.508;2023-05-23T11:27:35;99581.81;;;15.97;100.00
21545;BME280;10933;50.754;11.508;2023-05-23T11:30:09;99584.25;;;15.99;100.00
21545;BME280;10933;50.754;11.508;2023-05-23T11:32:38;99579.72;;;16.18;100.00
21545;BME280;10933;50.754;11.508;2023-05-23T11:35:09;99579.13;;;16.21;100.00
21545;BME280;10933;50.754;11.508;2023-05-23T11:37:37;99579.84;;;16.32;100.00
21545;BME280;10933;50.754;11.508;2023-05-23T11:42:56;99586.22;;;16.22;100.00
21545;BME280;10933;50.754;11.508;2023-05-23T11:45:23;99585.69;;;16.20;100.00
21545;BME280;10933;50.754;11.508;2023-05-23T11:47:49;99587.03;;;16.23;100.00
21545;BME280;10933;50.754;11.508;2023-05-23T11:50:16;99589.59;;;16.09;100.00
21545;BME280;10933;50.754;11.508;2023-05-23T11:52:42;99593.13;;;15.80;100.00
21545;BME280;10933;50.754;11.508;2023-05-23T11:55:09;99592.59;;;15.73;100.00
21545;BME280;10933;50.754;11.508;2023-05-23T11:57:39;99589.91;;;15.73;100.00
21545;BME280;10933;50.754;11.508;2023-05-23T12:00:07;99594.34;;;15.64;100.00
21545;BME280;10933;50.754;11.508;2023-05-23T12:02:39;99591.88;;;15.57;100.00
21545;BME280;10933;50.754;11.508;2023-05-23T12:05:13;99592.72;;;15.63;100.00
21545;BME280;10933;50.754;11.508;2023-05-23T12:07:46;99592.09;;;15.71;100.00
21545;BME280;10933;50.754;11.508;2023-05-23T12:10:17;99598.72;;;15.50;100.00
21545;BME280;10933;50.754;11.508;2023-05-23T12:12:43;99596.63;;;15.37;100.00
21545;BME280;10933;50.754;11.508;2023-05-23T12:15:11;99604.09;;;15.16;100.00
21545;BME280;10933;50.754;11.508;2023-05-23T12:17:38;99607.63;;;15.16;100.00
21545;BME280;10933;50.754;11.508;2023-05-23T12:20:05;99602.78;;;15.13;100.00
21545;BME280;10933;50.754;11.508;2023-05-23T12:22:32;99608.94;;;15.24;100.00
21545;BME280;10933;50.754;11.508;2023-05-23T12:24:58;99608.41;;;15.27;100.00
21545;BME280;10933;50.754;11.508;2023-05-23T12:27:28;99619.75;;;15.34;100.00
21545;BME280;10933;50.754;11.508;2023-05-23T12:32:38;99611.78;;;15.48;100.00
21545;BME280;10933;50.754;11.508;2023-05-23T12:35:04;99600.59;;;15.59;100.00
21545;BME280;10933;50.754;11.508;2023-05-23T12:37:31;99604.72;;;15.52;100.00
21545;BME280;10933;50.754;11.508;2023-05-23T12:40:07;99609.78;;;15.69;100.00
21545;BME280;10933;50.754;11.508;2023-05-23T12:42:50;99606.72;;;15.80;100.00
21545;BME280;10933;50.754;11.508;2023-05-23T12:45:18;99605.16;;;15.69;100.00
21545;BME280;10933;50.754;11.508;2023-05-23T12:47:44;99605.00;;;15.89;100.00
21545;BME280;10933;50.754;11.508;2023-05-23T12:50:10;99603.41;;;15.88;100.00
21545;BME280;10933;50.754;11.508;2023-05-23T12:52:37;99602.06;;;16.15;100.00
21545;BME280;10933;50.754;11.508;2023-05-23T12:55:06;99614.50;;;15.92;100.00
21545;BME280;10933;50.754;11.508;2023-05-23T12:57:34;99607.09;;;15.98;100.00
21545;BME280;10933;50.754;11.508;2023-05-23T13:00:00;99607.63;;;16.00;100.00
21545;BME280;10933;50.754;11.508;2023-05-23T13:02:27;99613.19;;;16.18;100.00
21545;BME280;10933;50.754;11.508;2023-05-23T13:04:54;99612.13;;;16.43;100.00
21545;BME280;10933;50.754;11.508;2023-05-23T13:07:20;99618.84;;;16.27;100.00
21545;BME280;10933;50.754;11.508;2023-05-23T13:09:46;99624.66;;;16.15;100.00
21545;BME280;10933;50.754;11.508;2023-05-23T13:12:13;99621.50;;;16.03;100.00